createdAt,value
2016-07-19T00:00:16.349Z,1013.99
2016-07-19T00:01:16.340Z,1014
2016-07-19T00:02:16.331Z,1013.99
2016-07-19T00:03:16.322Z,1013.98
2016-07-19T00:04:16.312Z,1013.98
2016-07-19T00:05:16.304Z,1013.98
2016-07-19T00:06:16.294Z,1013.94
2016-07-19T00:07:16.285Z,1013.97
2016-07-19T00:08:16.276Z,1013.97
2016-07-19T00:09:16.263Z,1013.96
2016-07-19T00:10:16.258Z,1013.97
2016-07-19T00:11:16.245Z,1013.94
2016-07-19T00:12:16.237Z,1013.93
2016-07-19T00:13:16.228Z,1013.93
2016-07-19T00:14:16.218Z,1013.94
2016-07-19T00:15:16.208Z,1013.93
2016-07-19T00:16:16.197Z,1013.99
2016-07-19T00:17:16.191Z,1013.98
2016-07-19T00:18:16.178Z,1013.9
2016-07-19T00:19:16.170Z,1013.93
2016-07-19T00:20:16.160Z,1013.94
2016-07-19T00:21:16.152Z,1013.93
2016-07-19T00:22:16.139Z,1013.91
2016-07-19T00:23:16.136Z,1013.93
2016-07-19T00:24:16.122Z,1013.9
2016-07-19T00:25:16.112Z,1013.85
2016-07-19T00:26:16.104Z,1013.89
2016-07-19T00:27:16.092Z,1013.85
2016-07-19T00:28:16.083Z,1013.83
2016-07-19T00:29:16.073Z,1013.82
2016-07-19T00:30:16.064Z,1013.81
2016-07-19T00:31:16.056Z,1013.79
2016-07-19T00:32:16.047Z,1013.81
2016-07-19T00:33:16.035Z,1013.76
2016-07-19T00:34:16.025Z,1013.77
2016-07-19T00:35:16.218Z,1013.77
2016-07-19T00:36:16.009Z,1013.77
2016-07-19T00:37:15.999Z,1013.8
2016-07-19T00:38:15.989Z,1013.8
2016-07-19T00:39:15.979Z,1013.78
2016-07-19T00:40:15.971Z,1013.78
2016-07-19T00:41:16.009Z,1013.77
2016-07-19T00:42:15.960Z,1013.76
2016-07-19T00:43:15.941Z,1013.84
2016-07-19T00:44:15.979Z,1013.78
2016-07-19T00:45:15.925Z,1013.78
2016-07-19T00:46:15.913Z,1013.77
2016-07-19T00:47:15.904Z,1013.77
2016-07-19T00:48:15.942Z,1013.74
2016-07-19T00:49:15.880Z,1013.75
2016-07-19T00:50:15.873Z,1013.75
2016-07-19T00:51:15.862Z,1013.75
2016-07-19T00:52:15.852Z,1013.76
2016-07-19T00:53:15.843Z,1013.74
2016-07-19T00:54:15.834Z,1013.74
2016-07-19T00:55:15.822Z,1013.7
2016-07-19T00:56:15.812Z,1013.69
2016-07-19T00:57:15.806Z,1013.71
2016-07-19T00:58:15.795Z,1013.68
2016-07-19T00:59:15.784Z,1013.72
2016-07-19T01:00:15.774Z,1013.69
2016-07-19T01:01:15.764Z,1013.65
2016-07-19T01:02:15.753Z,1013.67
2016-07-19T01:03:15.744Z,1013.68
2016-07-19T01:04:15.736Z,1013.69
2016-07-19T01:05:15.726Z,1013.68
2016-07-19T01:06:15.716Z,1013.69
2016-07-19T01:07:15.705Z,1013.69
2016-07-19T01:08:15.746Z,1013.68
2016-07-19T01:09:15.686Z,1013.68
2016-07-19T01:10:15.677Z,1013.67
2016-07-19T01:11:15.664Z,1013.68
2016-07-19T01:12:15.657Z,1013.67
2016-07-19T01:13:15.645Z,1013.7
2016-07-19T01:14:15.637Z,1013.66
2016-07-19T01:15:15.626Z,1013.7
2016-07-19T01:16:15.615Z,1013.69
2016-07-19T01:17:15.606Z,1013.72
2016-07-19T01:18:15.596Z,1013.72
2016-07-19T01:19:15.587Z,1013.74
2016-07-19T01:20:15.577Z,1013.75
2016-07-19T01:21:15.570Z,1013.74
2016-07-19T01:22:15.557Z,1013.72
2016-07-19T01:23:15.546Z,1013.73
2016-07-19T01:24:15.541Z,1013.7
2016-07-19T01:25:15.528Z,1013.7
2016-07-19T01:26:15.516Z,1013.68
2016-07-19T01:27:15.507Z,1013.67
2016-07-19T01:28:15.495Z,1013.67
2016-07-19T01:29:15.487Z,1013.7
2016-07-19T01:30:15.476Z,1013.71
2016-07-19T01:31:15.466Z,1013.75
2016-07-19T01:32:15.458Z,1013.7
2016-07-19T01:33:15.448Z,1013.7
2016-07-19T01:34:15.437Z,1013.72
2016-07-19T01:35:15.425Z,1013.71
2016-07-19T01:36:15.417Z,1013.67
2016-07-19T01:37:15.406Z,1013.69
2016-07-19T01:38:15.396Z,1013.66
2016-07-19T01:39:15.385Z,1013.7
2016-07-19T01:40:15.376Z,1013.7
2016-07-19T01:41:15.364Z,1013.75
2016-07-19T01:42:15.353Z,1013.73
2016-07-19T01:43:15.344Z,1013.7
2016-07-19T01:44:15.334Z,1013.71
2016-07-19T01:45:15.324Z,1013.73
2016-07-19T01:46:15.313Z,1013.73
2016-07-19T01:47:15.303Z,1013.72
2016-07-19T01:48:15.292Z,1013.72
2016-07-19T01:49:15.283Z,1013.66
2016-07-19T01:50:15.272Z,1013.68
2016-07-19T01:51:15.261Z,1013.68
2016-07-19T01:52:15.252Z,1013.68
2016-07-19T01:53:15.241Z,1013.65
2016-07-19T01:54:15.231Z,1013.65
2016-07-19T01:55:15.220Z,1013.69
2016-07-19T01:56:15.211Z,1013.68
2016-07-19T01:57:15.199Z,1013.67
2016-07-19T01:58:15.191Z,1013.66
2016-07-19T01:59:15.179Z,1013.65
2016-07-19T02:00:15.168Z,1013.66
2016-07-19T02:01:15.158Z,1013.66
2016-07-19T02:02:15.150Z,1013.68
2016-07-19T02:03:15.137Z,1013.69
2016-07-19T02:04:15.127Z,1013.68
2016-07-19T02:05:15.118Z,1013.66
2016-07-19T02:06:15.108Z,1013.62
2016-07-19T02:07:15.098Z,1013.62
2016-07-19T02:08:15.089Z,1013.63
2016-07-19T02:09:15.078Z,1013.64
2016-07-19T02:10:15.064Z,1013.61
2016-07-19T02:11:15.055Z,1013.65
2016-07-19T02:12:15.045Z,1013.64
2016-07-19T02:13:15.036Z,1013.65
2016-07-19T02:14:15.024Z,1013.61
2016-07-19T02:15:15.013Z,1013.66
2016-07-19T02:16:15.003Z,1013.65
2016-07-19T02:17:14.993Z,1013.63
2016-07-19T02:18:14.984Z,1013.6
2016-07-19T02:19:14.971Z,1013.63
2016-07-19T02:20:14.962Z,1013.64
2016-07-19T02:21:14.952Z,1013.6
2016-07-19T02:22:14.940Z,1013.63
2016-07-19T02:23:14.928Z,1013.61
2016-07-19T02:24:14.922Z,1013.59
2016-07-19T02:25:14.910Z,1013.58
2016-07-19T02:26:14.901Z,1013.57
2016-07-19T02:27:14.888Z,1013.61
2016-07-19T02:28:14.878Z,1013.58
2016-07-19T02:29:14.865Z,1013.61
2016-07-19T02:30:14.857Z,1013.59
2016-07-19T02:31:14.845Z,1013.59
2016-07-19T02:32:14.835Z,1013.61
2016-07-19T02:33:14.826Z,1013.57
2016-07-19T02:34:14.813Z,1013.58
2016-07-19T02:35:15.007Z,1013.55
2016-07-19T02:36:14.793Z,1013.55
2016-07-19T02:37:14.781Z,1013.5
2016-07-19T02:38:14.773Z,1013.5
2016-07-19T02:39:14.760Z,1013.51
2016-07-19T02:40:14.752Z,1013.48
2016-07-19T02:41:14.739Z,1013.47
2016-07-19T02:42:14.730Z,1013.51
2016-07-19T02:43:14.725Z,1013.48
2016-07-19T02:44:14.711Z,1013.48
2016-07-19T02:45:14.700Z,1013.49
2016-07-19T02:46:14.686Z,1013.47
2016-07-19T02:47:14.675Z,1013.51
2016-07-19T02:48:14.664Z,1013.48
2016-07-19T02:49:14.654Z,1013.51
2016-07-19T02:50:14.642Z,1013.5
2016-07-19T02:51:14.633Z,1013.49
2016-07-19T02:52:14.623Z,1013.46
2016-07-19T02:53:14.612Z,1013.45
2016-07-19T02:54:14.600Z,1013.47
2016-07-19T02:55:14.590Z,1013.49
2016-07-19T02:56:14.580Z,1013.44
2016-07-19T02:57:14.571Z,1013.45
2016-07-19T02:58:14.562Z,1013.49
2016-07-19T02:59:14.546Z,1013.45
2016-07-19T03:00:14.537Z,1013.5
2016-07-19T03:01:14.527Z,1013.49
2016-07-19T03:02:14.515Z,1013.47
2016-07-19T03:03:14.503Z,1013.46
2016-07-19T03:04:14.493Z,1013.48
2016-07-19T03:05:14.482Z,1013.49
2016-07-19T03:06:14.473Z,1013.46
2016-07-19T03:07:14.464Z,1013.48
2016-07-19T03:08:14.455Z,1013.5
2016-07-19T03:09:14.440Z,1013.4
2016-07-19T03:10:14.427Z,1013.48
2016-07-19T03:11:14.419Z,1013.48
2016-07-19T03:12:14.406Z,1013.46
2016-07-19T03:13:14.397Z,1013.46
2016-07-19T03:14:14.385Z,1013.45
2016-07-19T03:15:14.374Z,1013.44
2016-07-19T03:16:14.363Z,1013.46
2016-07-19T03:17:14.354Z,1013.45
2016-07-19T03:18:14.344Z,1013.44
2016-07-19T03:19:14.332Z,1013.44
2016-07-19T03:20:14.319Z,1013.38
2016-07-19T03:21:14.308Z,1013.39
2016-07-19T03:22:14.299Z,1013.4
2016-07-19T03:23:14.288Z,1013.36
2016-07-19T03:24:14.278Z,1013.4
2016-07-19T03:25:14.263Z,1013.4
2016-07-19T03:26:14.254Z,1013.42
2016-07-19T03:27:14.243Z,1013.47
2016-07-19T03:28:14.232Z,1013.43
2016-07-19T03:29:14.219Z,1013.46
2016-07-19T03:30:14.210Z,1013.43
2016-07-19T03:31:14.199Z,1013.45
2016-07-19T03:32:14.187Z,1013.43
2016-07-19T03:33:14.176Z,1013.42
2016-07-19T03:34:14.165Z,1013.5
2016-07-19T03:35:14.159Z,1013.46
2016-07-19T03:36:14.143Z,1013.48
2016-07-19T03:37:14.132Z,1013.45
2016-07-19T03:38:14.121Z,1013.48
2016-07-19T03:39:14.110Z,1013.46
2016-07-19T03:40:14.101Z,1013.46
2016-07-19T03:41:14.088Z,1013.45
2016-07-19T03:42:14.077Z,1013.47
2016-07-19T03:43:14.066Z,1013.43
2016-07-19T03:44:14.055Z,1013.47
2016-07-19T03:45:14.044Z,1013.47
2016-07-19T03:46:14.032Z,1013.44
2016-07-19T03:47:14.022Z,1013.42
2016-07-19T03:48:14.010Z,1013.48
2016-07-19T03:49:14.000Z,1013.45
2016-07-19T03:50:13.993Z,1013.47
2016-07-19T03:51:13.979Z,1013.47
2016-07-19T03:52:13.966Z,1013.44
2016-07-19T03:53:13.958Z,1013.44
2016-07-19T03:54:13.944Z,1013.48
2016-07-19T03:55:13.931Z,1013.47
2016-07-19T03:56:13.923Z,1013.47
2016-07-19T03:57:13.911Z,1013.49
2016-07-19T03:58:13.899Z,1013.49
2016-07-19T03:59:13.888Z,1013.48
2016-07-19T04:00:13.884Z,1013.47
2016-07-19T04:01:13.867Z,1013.49
2016-07-19T04:02:13.856Z,1013.45
2016-07-19T04:03:13.845Z,1013.5
2016-07-19T04:04:13.832Z,1013.45
2016-07-19T04:05:13.822Z,1013.45
2016-07-19T04:06:13.811Z,1013.48
2016-07-19T04:07:13.799Z,1013.45
2016-07-19T04:08:13.790Z,1013.47
2016-07-19T04:09:13.777Z,1013.47
2016-07-19T04:10:13.768Z,1013.48
2016-07-19T04:11:13.756Z,1013.5
2016-07-19T04:12:13.744Z,1013.5
2016-07-19T04:13:13.733Z,1013.49
2016-07-19T04:14:13.725Z,1013.53
2016-07-19T04:15:13.713Z,1013.47
2016-07-19T04:16:13.700Z,1013.51
2016-07-19T04:17:13.690Z,1013.48
2016-07-19T04:18:13.679Z,1013.45
2016-07-19T04:19:13.674Z,1013.46
2016-07-19T04:20:13.658Z,1013.42
2016-07-19T04:21:13.647Z,1013.44
2016-07-19T04:22:13.635Z,1013.43
2016-07-19T04:23:13.627Z,1013.39
2016-07-19T04:24:13.613Z,1013.4
2016-07-19T04:25:13.601Z,1013.47
2016-07-19T04:26:13.592Z,1013.41
2016-07-19T04:27:13.629Z,1013.43
2016-07-19T04:28:13.569Z,1013.44
2016-07-19T04:29:13.558Z,1013.46
2016-07-19T04:30:13.547Z,1013.44
2016-07-19T04:31:13.538Z,1013.48
2016-07-19T04:32:13.526Z,1013.47
2016-07-19T04:33:13.516Z,1013.48
2016-07-19T04:34:13.505Z,1013.47
2016-07-19T04:35:13.696Z,1013.53
2016-07-19T04:36:13.483Z,1013.5
2016-07-19T04:37:13.472Z,1013.54
2016-07-19T04:38:13.465Z,1013.55
2016-07-19T04:39:13.451Z,1013.54
2016-07-19T04:40:13.439Z,1013.57
2016-07-19T04:41:13.429Z,1013.58
2016-07-19T04:42:13.418Z,1013.57
2016-07-19T04:43:13.407Z,1013.57
2016-07-19T04:44:13.396Z,1013.59
2016-07-19T04:45:13.384Z,1013.58
2016-07-19T04:46:13.373Z,1013.61
2016-07-19T04:47:13.549Z,1013.57
2016-07-19T04:48:13.354Z,1013.55
2016-07-19T04:49:13.344Z,1013.59
2016-07-19T04:50:13.330Z,1013.58
2016-07-19T04:51:13.321Z,1013.57
2016-07-19T04:52:13.309Z,1013.58
2016-07-19T04:53:13.299Z,1013.55
2016-07-19T04:54:13.286Z,1013.56
2016-07-19T04:55:13.277Z,1013.58
2016-07-19T04:56:13.268Z,1013.55
2016-07-19T04:57:13.254Z,1013.56
2016-07-19T04:58:13.244Z,1013.53
2016-07-19T04:59:13.234Z,1013.53
2016-07-19T05:00:13.221Z,1013.55
2016-07-19T05:01:13.213Z,1013.54
2016-07-19T05:02:13.203Z,1013.58
2016-07-19T05:03:13.192Z,1013.55
2016-07-19T05:04:13.179Z,1013.62
2016-07-19T05:05:13.171Z,1013.61
2016-07-19T05:06:13.159Z,1013.6
2016-07-19T05:07:13.197Z,1013.63
2016-07-19T05:08:13.137Z,1013.6
2016-07-19T05:09:13.127Z,1013.66
2016-07-19T05:10:13.117Z,1013.65
2016-07-19T05:11:13.105Z,1013.66
2016-07-19T05:12:13.096Z,1013.67
2016-07-19T05:13:13.084Z,1013.68
2016-07-19T05:14:13.073Z,1013.65
2016-07-19T05:15:13.063Z,1013.64
2016-07-19T05:16:13.054Z,1013.67
2016-07-19T05:17:13.045Z,1013.65
2016-07-19T05:18:13.032Z,1013.63
2016-07-19T05:19:13.021Z,1013.61
2016-07-19T05:20:13.010Z,1013.64
2016-07-19T05:21:13.002Z,1013.65
2016-07-19T05:22:12.988Z,1013.68
2016-07-19T05:23:12.980Z,1013.69
2016-07-19T05:24:12.970Z,1013.67
2016-07-19T05:25:12.958Z,1013.66
2016-07-19T05:26:12.947Z,1013.71
2016-07-19T05:27:12.938Z,1013.71
2016-07-19T05:28:12.928Z,1013.73
2016-07-19T05:29:12.919Z,1013.73
2016-07-19T05:30:12.957Z,1013.76
2016-07-19T05:31:12.896Z,1013.75
2016-07-19T05:32:12.887Z,1013.74
2016-07-19T05:33:12.875Z,1013.76
2016-07-19T05:34:12.867Z,1013.74
2016-07-19T05:35:12.855Z,1013.74
2016-07-19T05:36:12.845Z,1013.75
2016-07-19T05:37:12.833Z,1013.79
2016-07-19T05:38:12.824Z,1013.75
2016-07-19T05:39:12.815Z,1013.77
2016-07-19T05:40:12.804Z,1013.76
2016-07-19T05:41:12.794Z,1013.76
2016-07-19T05:42:12.790Z,1013.76
2016-07-19T05:43:12.776Z,1013.74
2016-07-19T05:44:12.766Z,1013.8
2016-07-19T05:45:12.755Z,1013.78
2016-07-19T05:46:12.745Z,1013.81
2016-07-19T05:47:12.734Z,1013.81
2016-07-19T05:48:12.724Z,1013.82
2016-07-19T05:49:12.714Z,1013.83
2016-07-19T05:50:12.707Z,1013.82
2016-07-19T05:51:12.695Z,1013.8
2016-07-19T05:52:12.685Z,1013.83
2016-07-19T05:53:12.676Z,1013.84
2016-07-19T05:54:12.665Z,1013.83
2016-07-19T05:55:12.656Z,1013.83
2016-07-19T05:56:12.645Z,1013.82
2016-07-19T05:57:12.636Z,1013.81
2016-07-19T05:58:12.626Z,1013.84
2016-07-19T05:59:12.616Z,1013.87
2016-07-19T06:00:12.608Z,1013.89
2016-07-19T06:01:12.601Z,1013.89
2016-07-19T06:02:12.588Z,1013.86
2016-07-19T06:03:12.581Z,1013.9
2016-07-19T06:04:12.571Z,1013.88
2016-07-19T06:05:12.561Z,1013.89
2016-07-19T06:06:12.551Z,1013.91
2016-07-19T06:07:12.548Z,1013.9
2016-07-19T06:08:12.582Z,1013.86
2016-07-19T06:09:12.521Z,1013.88
2016-07-19T06:10:12.514Z,1013.86
2016-07-19T06:11:12.503Z,1013.9
2016-07-19T06:12:12.494Z,1013.87
2016-07-19T06:13:12.483Z,1013.86
2016-07-19T06:14:12.474Z,1013.91
2016-07-19T06:15:12.464Z,1013.9
2016-07-19T06:16:12.454Z,1013.92
2016-07-19T06:17:12.446Z,1013.91
2016-07-19T06:18:12.438Z,1013.94
2016-07-19T06:19:12.427Z,1013.95
2016-07-19T06:20:12.418Z,1013.94
2016-07-19T06:21:12.413Z,1013.97
2016-07-19T06:22:12.400Z,1013.98
2016-07-19T06:23:12.392Z,1013.97
2016-07-19T06:24:12.382Z,1013.97
2016-07-19T06:25:12.373Z,1013.95
2016-07-19T06:26:12.369Z,1013.95
2016-07-19T06:27:12.368Z,1013.93
2016-07-19T06:28:12.345Z,1013.9
2016-07-19T06:29:12.336Z,1013.91
2016-07-19T06:30:12.328Z,1013.92
2016-07-19T06:31:12.318Z,1013.93
2016-07-19T06:32:12.310Z,1013.92
2016-07-19T06:33:12.302Z,1013.9
2016-07-19T06:34:12.292Z,1013.91
2016-07-19T06:35:12.485Z,1013.89
2016-07-19T06:36:12.272Z,1013.91
2016-07-19T06:37:12.265Z,1013.86
2016-07-19T06:38:12.255Z,1013.88
2016-07-19T06:39:12.247Z,1013.92
2016-07-19T06:40:12.238Z,1013.95
2016-07-19T06:41:12.234Z,1013.91
2016-07-19T06:42:12.219Z,1013.96
2016-07-19T06:43:12.213Z,1013.95
2016-07-19T06:44:12.204Z,1013.99
2016-07-19T06:45:12.196Z,1013.93
2016-07-19T06:46:12.184Z,1013.97
2016-07-19T06:47:12.178Z,1013.98
2016-07-19T06:48:12.170Z,1013.97
2016-07-19T06:49:12.159Z,1013.95
2016-07-19T06:50:12.151Z,1013.86
2016-07-19T06:51:12.219Z,1013.86
2016-07-19T06:52:12.134Z,1013.87
2016-07-19T06:53:12.125Z,1013.87
2016-07-19T06:54:12.117Z,1013.88
2016-07-19T06:55:12.109Z,1013.88
2016-07-19T06:56:12.100Z,1013.9
2016-07-19T06:57:12.091Z,1013.91
2016-07-19T06:58:12.135Z,1013.92
2016-07-19T06:59:12.086Z,1013.89
2016-07-19T07:00:12.064Z,1013.89
2016-07-19T07:01:12.058Z,1013.93
2016-07-19T07:02:12.049Z,1013.88
2016-07-19T07:03:12.040Z,1013.9
2016-07-19T07:04:12.033Z,1013.92
2016-07-19T07:05:12.024Z,1013.87
2016-07-19T07:06:12.015Z,1013.97
2016-07-19T07:07:12.008Z,1013.93
2016-07-19T07:08:11.998Z,1013.94
2016-07-19T07:09:11.990Z,1013.93
2016-07-19T07:10:11.984Z,1013.89
2016-07-19T07:11:11.973Z,1013.89
2016-07-19T07:12:11.966Z,1013.9
2016-07-19T07:13:11.959Z,1013.89
2016-07-19T07:14:11.950Z,1013.9
2016-07-19T07:15:11.944Z,1013.86
2016-07-19T07:16:11.937Z,1013.9
2016-07-19T07:17:11.926Z,1013.83
2016-07-19T07:18:11.920Z,1013.84
2016-07-19T07:19:11.908Z,1013.8
2016-07-19T07:20:11.901Z,1013.84
2016-07-19T07:21:11.895Z,1013.84
2016-07-19T07:22:11.886Z,1013.77
2016-07-19T07:23:11.882Z,1013.75
2016-07-19T07:24:11.869Z,1013.73
2016-07-19T07:25:11.863Z,1013.73
2016-07-19T07:26:11.854Z,1013.76
2016-07-19T07:27:11.847Z,1013.76
2016-07-19T07:28:11.839Z,1013.76
2016-07-19T07:29:11.830Z,1013.76
2016-07-19T07:30:11.823Z,1013.75
2016-07-19T07:31:11.813Z,1013.74
2016-07-19T07:32:11.806Z,1013.77
2016-07-19T07:33:11.799Z,1013.78
2016-07-19T07:34:11.791Z,1013.76
2016-07-19T07:35:11.783Z,1013.8
2016-07-19T07:36:11.779Z,1013.81
2016-07-19T07:37:11.766Z,1013.86
2016-07-19T07:38:11.762Z,1013.85
2016-07-19T07:39:11.754Z,1013.89
2016-07-19T07:40:11.748Z,1013.87
2016-07-19T07:41:11.745Z,1013.89
2016-07-19T07:42:11.737Z,1013.89
2016-07-19T07:43:11.732Z,1013.92
2016-07-19T07:44:11.725Z,1013.95
2016-07-19T07:45:11.719Z,1013.97
2016-07-19T07:46:11.718Z,1013.95
2016-07-19T07:47:11.712Z,1013.97
2016-07-19T07:48:11.705Z,1014
2016-07-19T07:49:11.701Z,1013.95
2016-07-19T07:50:11.698Z,1013.98
2016-07-19T07:51:11.692Z,1013.99
2016-07-19T07:52:11.689Z,1014
2016-07-19T07:53:11.687Z,1014
2016-07-19T07:54:11.683Z,1014.01
2016-07-19T07:55:11.678Z,1014.04
2016-07-19T07:56:11.677Z,1014.04
2016-07-19T07:57:11.675Z,1014.09
2016-07-19T07:58:11.674Z,1014.06
2016-07-19T07:59:11.670Z,1014.08
2016-07-19T08:00:11.670Z,1014.09
2016-07-19T08:01:11.668Z,1014.09
2016-07-19T08:02:11.666Z,1014.12
2016-07-19T08:03:11.667Z,1014.05
2016-07-19T08:04:11.664Z,1014.09
2016-07-19T08:05:11.664Z,1014.08
2016-07-19T08:06:11.663Z,1014.06
2016-07-19T08:07:11.661Z,1014.1
2016-07-19T08:08:11.662Z,1014.1
2016-07-19T08:09:11.663Z,1014.14
2016-07-19T08:10:11.665Z,1014.11
2016-07-19T08:11:11.662Z,1014.15
2016-07-19T08:12:11.663Z,1014.17
2016-07-19T08:13:11.661Z,1014.14
2016-07-19T08:14:11.662Z,1014.14
2016-07-19T08:15:11.664Z,1014.15
2016-07-19T08:16:11.669Z,1014.16
2016-07-19T08:17:11.665Z,1014.16
2016-07-19T08:18:11.665Z,1014.15
2016-07-19T08:19:11.668Z,1014.17
2016-07-19T08:20:11.669Z,1014.19
2016-07-19T08:21:11.670Z,1014.16
2016-07-19T08:22:11.670Z,1014.19
2016-07-19T08:23:11.672Z,1014.15
2016-07-19T08:24:11.672Z,1014.15
2016-07-19T08:25:11.674Z,1014.18
2016-07-19T08:26:11.677Z,1014.16
2016-07-19T08:27:11.677Z,1014.15
2016-07-19T08:28:11.682Z,1014.21
2016-07-19T08:29:11.685Z,1014.17
2016-07-19T08:30:11.685Z,1014.15
2016-07-19T08:31:11.686Z,1014.18
2016-07-19T08:32:11.687Z,1014.18
2016-07-19T08:33:11.690Z,1014.16
2016-07-19T08:34:11.693Z,1014.22
2016-07-19T08:35:11.898Z,1014.21
2016-07-19T08:36:11.696Z,1014.2
2016-07-19T08:37:11.701Z,1014.2
2016-07-19T08:38:11.704Z,1014.22
2016-07-19T08:39:11.706Z,1014.18
2016-07-19T08:40:11.709Z,1014.16
2016-07-19T08:41:11.711Z,1014.22
2016-07-19T08:42:11.715Z,1014.24
2016-07-19T08:43:11.990Z,1014.2
2016-07-19T08:44:11.717Z,1014.18
2016-07-19T08:45:11.723Z,1014.18
2016-07-19T08:46:11.729Z,1014.16
2016-07-19T08:47:11.726Z,1014.15
2016-07-19T08:48:11.729Z,1014.13
2016-07-19T08:49:11.735Z,1014.14
2016-07-19T08:50:11.737Z,1014.13
2016-07-19T08:51:11.745Z,1014.13
2016-07-19T08:52:11.741Z,1014.13
2016-07-19T08:53:11.745Z,1014.14
2016-07-19T08:54:11.744Z,1014.16
2016-07-19T08:55:11.747Z,1014.18
2016-07-19T08:56:11.821Z,1014.21
2016-07-19T08:57:11.758Z,1014.21
2016-07-19T08:58:11.754Z,1014.17
2016-07-19T08:59:11.756Z,1014.13
2016-07-19T09:00:11.759Z,1014.14
2016-07-19T09:01:11.758Z,1014.1
2016-07-19T09:02:11.759Z,1014.17
2016-07-19T09:03:11.759Z,1014.23
2016-07-19T09:04:11.762Z,1014.13
2016-07-19T09:05:11.763Z,1014.18
2016-07-19T09:06:11.761Z,1014.19
2016-07-19T09:07:11.763Z,1014.11
2016-07-19T09:08:11.762Z,1014.11
2016-07-19T09:09:11.761Z,1014.08
2016-07-19T09:10:11.760Z,1014.07
2016-07-19T09:11:11.760Z,1014.1
2016-07-19T09:12:11.764Z,1014.08
2016-07-19T09:13:11.760Z,1014.14
2016-07-19T09:14:11.759Z,1014.06
2016-07-19T09:15:11.756Z,1014.04
2016-07-19T09:16:11.755Z,1014.06
2016-07-19T09:17:11.755Z,1014.09
2016-07-19T09:18:11.753Z,1014.08
2016-07-19T09:19:11.752Z,1014.12
2016-07-19T09:20:11.750Z,1014.21
2016-07-19T09:21:11.748Z,1014.34
2016-07-19T09:22:11.745Z,1014.41
2016-07-19T09:23:11.743Z,1014.38
2016-07-19T09:24:11.743Z,1014.45
2016-07-19T09:25:11.745Z,1014.41
2016-07-19T09:26:11.741Z,1014.32
2016-07-19T09:27:11.740Z,1014.24
2016-07-19T09:28:11.738Z,1014.19
2016-07-19T09:29:11.739Z,1014.16
2016-07-19T09:30:11.736Z,1014.08
2016-07-19T09:31:11.740Z,1014.14
2016-07-19T09:32:11.737Z,1014.25
2016-07-19T09:33:11.739Z,1014.31
2016-07-19T09:34:11.735Z,1014.31
2016-07-19T09:35:11.740Z,1014.34
2016-07-19T09:36:11.743Z,1014.21
2016-07-19T09:37:11.746Z,1014.18
2016-07-19T09:38:11.740Z,1014.07
2016-07-19T09:39:11.737Z,1014.02
2016-07-19T09:40:11.739Z,1014.11
2016-07-19T09:41:11.738Z,1014.21
2016-07-19T09:42:11.740Z,1014.23
2016-07-19T09:43:11.739Z,1014.18
2016-07-19T09:44:11.740Z,1014.16
2016-07-19T09:45:11.740Z,1014.19
2016-07-19T09:46:11.741Z,1014.22
2016-07-19T09:47:11.742Z,1014.21
2016-07-19T09:48:11.741Z,1014.13
2016-07-19T09:49:11.746Z,1014.08
2016-07-19T09:50:11.745Z,1014.08
2016-07-19T09:51:11.745Z,1014.02
2016-07-19T09:52:11.746Z,1013.94
2016-07-19T09:53:11.748Z,1014
2016-07-19T09:54:11.748Z,1013.96
2016-07-19T09:55:11.748Z,1013.93
2016-07-19T09:56:11.749Z,1013.95
2016-07-19T09:57:11.751Z,1013.94
2016-07-19T09:58:11.751Z,1013.94
2016-07-19T09:59:11.753Z,1013.99
2016-07-19T10:00:11.751Z,1013.96
2016-07-19T10:01:11.749Z,1013.89
2016-07-19T10:02:11.750Z,1013.82
2016-07-19T10:03:11.748Z,1013.83
2016-07-19T10:04:11.747Z,1013.86
2016-07-19T10:05:11.747Z,1013.8
2016-07-19T10:06:11.747Z,1013.78
2016-07-19T10:07:11.744Z,1013.79
2016-07-19T10:08:11.744Z,1013.79
2016-07-19T10:09:11.743Z,1013.78
2016-07-19T10:10:11.741Z,1013.75
2016-07-19T10:11:11.741Z,1013.68
2016-07-19T10:12:11.738Z,1013.66
2016-07-19T10:13:11.738Z,1013.55
2016-07-19T10:14:11.738Z,1013.57
2016-07-19T10:15:11.739Z,1013.59
2016-07-19T10:16:11.734Z,1013.6
2016-07-19T10:17:11.734Z,1013.66
2016-07-19T10:18:11.733Z,1013.7
2016-07-19T10:19:11.732Z,1013.71
2016-07-19T10:20:11.733Z,1013.72
2016-07-19T10:21:11.732Z,1013.78
2016-07-19T10:22:11.733Z,1013.81
2016-07-19T10:23:11.736Z,1013.8
2016-07-19T10:24:11.737Z,1013.83
2016-07-19T10:25:11.739Z,1013.83
2016-07-19T10:26:11.740Z,1013.87
2016-07-19T10:27:11.739Z,1013.86
2016-07-19T10:28:11.743Z,1013.91
2016-07-19T10:29:11.744Z,1013.94
2016-07-19T10:30:11.746Z,1013.92
2016-07-19T10:31:11.749Z,1013.94
2016-07-19T10:32:11.750Z,1013.92
2016-07-19T10:33:11.753Z,1013.94
2016-07-19T10:34:11.756Z,1013.98
2016-07-19T10:35:11.963Z,1013.94
2016-07-19T10:36:11.762Z,1013.97
2016-07-19T10:37:11.765Z,1014.01
2016-07-19T10:38:11.769Z,1013.97
2016-07-19T10:39:11.772Z,1014.03
2016-07-19T10:40:11.775Z,1014.02
2016-07-19T10:41:11.780Z,1013.99
2016-07-19T10:42:11.786Z,1014.03
2016-07-19T10:43:11.789Z,1014
2016-07-19T10:44:11.794Z,1013.97
2016-07-19T10:45:11.797Z,1013.99
2016-07-19T10:46:11.802Z,1013.99
2016-07-19T10:47:11.806Z,1013.99
2016-07-19T10:48:11.814Z,1014.03
2016-07-19T10:49:11.817Z,1014.03
2016-07-19T10:50:11.821Z,1014.02
2016-07-19T10:51:11.829Z,1014.01
2016-07-19T10:52:11.834Z,1013.98
2016-07-19T10:53:11.839Z,1013.95
2016-07-19T10:54:11.845Z,1013.95
2016-07-19T10:55:11.851Z,1013.88
2016-07-19T10:56:11.856Z,1013.9
2016-07-19T10:57:11.864Z,1013.9
2016-07-19T10:58:11.870Z,1013.84
2016-07-19T10:59:11.874Z,1013.8
2016-07-19T11:00:11.884Z,1013.82
2016-07-19T11:01:11.886Z,1013.79
2016-07-19T11:02:11.894Z,1013.78
2016-07-19T11:03:11.900Z,1013.77
2016-07-19T11:04:11.906Z,1013.77
2016-07-19T11:05:11.915Z,1013.78
2016-07-19T11:06:11.921Z,1013.76
2016-07-19T11:07:11.925Z,1013.76
2016-07-19T11:08:11.932Z,1013.72
2016-07-19T11:09:11.939Z,1013.77
2016-07-19T11:10:11.945Z,1013.77
2016-07-19T11:11:11.953Z,1013.81
2016-07-19T11:12:11.960Z,1013.72
2016-07-19T11:13:11.964Z,1013.72
2016-07-19T11:14:11.971Z,1013.7
2016-07-19T11:15:11.976Z,1013.72
2016-07-19T11:16:11.983Z,1013.7
2016-07-19T11:17:11.989Z,1013.68
2016-07-19T11:18:11.996Z,1013.68
2016-07-19T11:19:12.002Z,1013.67
2016-07-19T11:20:12.007Z,1013.63
2016-07-19T11:21:12.014Z,1013.64
2016-07-19T11:22:12.022Z,1013.64
2016-07-19T11:23:12.026Z,1013.65
2016-07-19T11:24:12.034Z,1013.63
2016-07-19T11:25:12.040Z,1013.61
2016-07-19T11:26:12.047Z,1013.56
2016-07-19T11:27:12.052Z,1013.56
2016-07-19T11:28:12.061Z,1013.52
2016-07-19T11:29:12.066Z,1013.52
2016-07-19T11:30:12.072Z,1013.53
2016-07-19T11:31:12.080Z,1013.52
2016-07-19T11:32:12.085Z,1013.52
2016-07-19T11:33:12.092Z,1013.52
2016-07-19T11:34:12.102Z,1013.49
2016-07-19T11:35:12.108Z,1013.51
2016-07-19T11:36:12.113Z,1013.51
2016-07-19T11:37:12.299Z,1013.51
2016-07-19T11:38:12.133Z,1013.54
2016-07-19T11:39:12.134Z,1013.52
2016-07-19T11:40:12.143Z,1013.49
2016-07-19T11:41:12.151Z,1013.55
2016-07-19T11:42:12.155Z,1013.52
2016-07-19T11:43:12.166Z,1013.51
2016-07-19T11:44:12.176Z,1013.53
2016-07-19T11:45:12.180Z,1013.54
2016-07-19T11:46:12.188Z,1013.47
2016-07-19T11:47:12.192Z,1013.49
2016-07-19T11:48:12.201Z,1013.44
2016-07-19T11:49:12.206Z,1013.45
2016-07-19T11:50:12.212Z,1013.44
2016-07-19T11:51:12.227Z,1013.4
2016-07-19T11:52:12.227Z,1013.38
2016-07-19T11:53:12.238Z,1013.37
2016-07-19T11:54:12.243Z,1013.37
2016-07-19T11:55:12.253Z,1013.31
2016-07-19T11:56:12.254Z,1013.31
2016-07-19T11:57:12.262Z,1013.31
2016-07-19T11:58:12.270Z,1013.3
2016-07-19T11:59:12.277Z,1013.33
2016-07-19T12:00:12.284Z,1013.31
2016-07-19T12:01:12.292Z,1013.27
2016-07-19T12:02:12.300Z,1013.29
2016-07-19T12:03:12.308Z,1013.27
2016-07-19T12:04:12.314Z,1013.29
2016-07-19T12:05:12.325Z,1013.31
2016-07-19T12:06:12.331Z,1013.26
2016-07-19T12:07:12.336Z,1013.25
2016-07-19T12:08:12.345Z,1013.23